Time;durP1;ratioP1;P1;durP2;ratioP2;P2;SDS_P1;SDS_P2;PMS_P1;PMS_P2;Temp;Humidity;BMP_temperature;BMP_pressure;BME280_temperature;BME280_humidity;BME280_pressure;Samples;Min_cycle;Max_cycle;Signal;HPM_P1;HPM_P2
2023/01/21 00:02:07;;;;;;;42.85;27.50;;;;;;;-1.21;100.00;102483.66;5060580;28;20029;-52
2023/01/21 00:04:36;;;;;;;42.15;28.02;;;;;;;-1.21;100.00;102487.13;5048491;28;20539;-52
2023/01/21 00:07:03;;;;;;;41.72;27.20;;;;;;;-1.23;100.00;102490.59;5053824;28;20072;-53
2023/01/21 00:09:28;;;;;;;44.45;27.08;;;;;;;-1.23;100.00;102498.41;5053166;28;20028;-53
2023/01/21 00:11:53;;;;;;;42.53;27.40;;;;;;;-1.24;100.00;102500.16;5045787;28;20051;-53
2023/01/21 00:14:19;;;;;;;47.50;27.38;;;;;;;-1.25;100.00;102510.56;5050442;28;20025;-53
2023/01/21 00:16:44;;;;;;;42.50;27.80;;;;;;;-1.28;100.00;102511.47;5053177;28;20135;-52
2023/01/21 00:19:09;;;;;;;43.95;26.95;;;;;;;-1.28;100.00;102511.47;5043324;28;20032;-54
2023/01/21 00:21:34;;;;;;;44.03;27.10;;;;;;;-1.29;100.00;102516.69;5053514;28;20077;-53
2023/01/21 00:24:00;;;;;;;44.67;28.10;;;;;;;-1.28;100.00;102523.59;5051908;28;20032;-53
2023/01/21 00:26:25;;;;;;;41.20;26.35;;;;;;;-1.32;100.00;102514.94;5035604;28;20024;-53
2023/01/21 00:28:50;;;;;;;42.67;26.33;;;;;;;-1.33;100.00;102529.72;5052881;28;20391;-54
2023/01/21 00:31:15;;;;;;;42.97;27.30;;;;;;;-1.35;100.00;102528.84;5052279;28;20029;-52
2023/01/21 00:33:41;;;;;;;45.00;28.05;;;;;;;-1.37;100.00;102522.75;5053010;28;20032;-53
2023/01/21 00:36:09;;;;;;;43.80;26.40;;;;;;;-1.37;100.00;102527.94;5046467;28;20031;-53
2023/01/21 00:38:35;;;;;;;43.83;26.77;;;;;;;-1.38;100.00;102528.84;5052720;28;20025;-55
2023/01/21 00:41:06;;;;;;;48.20;28.50;;;;;;;-1.37;100.00;102538.38;5052860;28;20411;-52
2023/01/21 00:43:32;;;;;;;48.50;29.33;;;;;;;-1.38;100.00;102540.97;5040820;28;20032;-53
2023/01/21 00:45:57;;;;;;;46.78;28.30;;;;;;;-1.40;100.00;102537.50;5053175;28;20406;-53
2023/01/21 00:48:23;;;;;;;44.13;27.00;;;;;;;-1.40;100.00;102543.63;5052941;28;20025;-53
2023/01/21 00:50:50;;;;;;;49.30;29.73;;;;;;;-1.43;100.00;102551.44;5049937;28;20052;-53
2023/01/21 00:53:16;;;;;;;44.35;27.52;;;;;;;-1.43;100.00;102560.97;5052639;28;20032;-52
2023/01/21 00:55:42;;;;;;;45.47;27.67;;;;;;;-1.43;100.00;102563.56;5052814;28;20106;-54
2023/01/21 00:58:07;;;;;;;47.55;28.85;;;;;;;-1.45;100.00;102568.78;5040149;28;20068;-56
2023/01/21 01:00:32;;;;;;;44.13;27.83;;;;;;;-1.44;100.00;102569.66;5053073;28;20506;-54
2023/01/21 01:02:57;;;;;;;46.45;28.88;;;;;;;-1.48;100.00;102568.78;5045931;28;20475;-56
2023/01/21 01:05:23;;;;;;;43.17;26.90;;;;;;;-1.49;100.00;102580.94;5052935;28;20059;-53
2023/01/21 01:07:49;;;;;;;44.65;27.85;;;;;;;-1.49;100.00;102586.16;5052140;28;20486;-53
2023/01/21 01:10:15;;;;;;;47.78;28.08;;;;;;;-1.50;100.00;102589.63;5052570;28;20426;-56
2023/01/21 01:12:40;;;;;;;44.60;28.73;;;;;;;-1.49;100.00;102595.72;5051750;28;20051;-55
2023/01/21 01:15:06;;;;;;;50.40;30.52;;;;;;;-1.51;100.00;102600.06;5042666;28;20395;-51
2023/01/21 01:17:32;;;;;;;46.50;27.65;;;;;;;-1.52;100.00;102603.50;5050157;28;20311;-52
2023/01/21 01:19:57;;;;;;;47.08;29.65;;;;;;;-1.52;100.00;102604.38;5052455;28;20387;-55
2023/01/21 01:22:22;;;;;;;47.95;29.77;;;;;;;-1.52;100.00;102609.59;5040555;28;20100;-53
2023/01/21 01:24:48;;;;;;;47.03;29.13;;;;;;;-1.53;100.00;102618.28;5052553;28;20081;-55
2023/01/21 01:27:13;;;;;;;48.83;30.52;;;;;;;-1.54;100.00;102626.09;5050709;28;20088;-54
2023/01/21 01:29:38;;;;;;;48.22;30.45;;;;;;;-1.55;100.00;102630.47;5052820;28;20075;-53
2023/01/21 01:32:04;;;;;;;50.85;31.38;;;;;;;-1.54;100.00;102639.13;5049009;28;20025;-56
2023/01/21 01:34:29;;;;;;;51.88;31.05;;;;;;;-1.55;100.00;102642.59;5052157;28;20090;-57
2023/01/21 01:36:54;;;;;;;51.72;31.02;;;;;;;-1.54;100.00;102644.34;5049671;28;20032;-56
2023/01/21 01:39:20;;;;;;;47.15;29.75;;;;;;;-1.56;100.00;102644.34;5052056;28;20029;-53
2023/01/21 01:41:45;;;;;;;51.95;30.27;;;;;;;-1.55;100.00;102650.41;5048753;28;20033;-57
2023/01/21 01:44:53;;;;;;;50.75;32.63;;;;;;;-1.54;100.00;102649.56;5034179;28;20087;-57
2023/01/21 01:47:20;;;;;;;47.45;29.42;;;;;;;-1.56;100.00;102661.72;5041995;28;20060;-53
2023/01/21 01:49:46;;;;;;;51.47;31.40;;;;;;;-1.57;100.00;102655.63;5051568;28;20441;-54
2023/01/21 01:52:15;;;;;;;53.72;32.63;;;;;;;-1.57;100.00;102654.75;5052115;28;20045;-55
2023/01/21 01:54:45;;;;;;;51.93;32.37;;;;;;;-1.58;100.00;102659.09;5032717;28;20120;-56
2023/01/21 01:57:13;;;;;;;54.83;33.30;;;;;;;-1.60;100.00;102663.44;5051569;28;20079;-56
2023/01/21 01:59:40;;;;;;;51.55;32.70;;;;;;;-1.60;100.00;102666.06;5052003;28;20049;-56
2023/01/21 02:02:10;;;;;;;49.80;31.65;;;;;;;-1.60;100.00;102675.59;5044862;28;20028;-55
2023/01/21 02:04:43;;;;;;;51.92;32.03;;;;;;;-1.64;100.00;102672.09;5051613;28;20494;-53
2023/01/21 02:07:08;;;;;;;54.45;33.22;;;;;;;-1.64;100.00;102679.06;5050963;28;20060;-56
2023/01/21 02:09:34;;;;;;;57.28;32.35;;;;;;;-1.64;100.00;102681.66;5051401;28;20471;-56
2023/01/21 02:12:01;;;;;;;50.83;32.67;;;;;;;-1.68;100.00;102673.84;5051589;28;20025;-52
2023/01/21 02:14:28;;;;;;;54.45;34.67;;;;;;;-1.67;100.00;102682.50;5051090;28;20025;-56
2023/01/21 02:17:24;;;;;;;56.28;35.25;;;;;;;-1.65;100.00;102690.34;5049266;28;20139;-56
2023/01/21 02:20:20;;;;;;;56.08;34.05;;;;;;;-1.64;100.00;102692.94;5051350;28;20052;-56
2023/01/21 02:23:11;;;;;;;52.50;32.95;;;;;;;-1.63;100.00;102702.53;5046230;28;20072;-55
2023/01/21 02:26:22;;;;;;;53.88;32.90;;;;;;;-1.63;100.00;102702.53;5050329;28;20028;-57
2023/01/21 02:29:14;;;;;;;54.85;33.58;;;;;;;-1.66;100.00;102701.63;5050044;28;20017;-53
2023/01/21 02:31:54;;;;;;;54.50;34.30;;;;;;;-1.72;100.00;102705.94;5033046;28;20413;-55
2023/01/21 02:34:25;;;;;;;;;;;;;;;-1.62;100.00;102709.44;5045831;28;20032;-53
2023/01/21 02:37:01;;;;;;;59.00;34.55;;;;;;;-1.71;100.00;102706.81;5044550;28;19913;-54
2023/01/21 02:39:46;;;;;;;58.25;34.65;;;;;;;-1.76;100.00;102717.22;5050975;28;20021;-53
2023/01/21 02:42:28;;;;;;;61.60;37.33;;;;;;;-1.76;100.00;102709.41;5042695;28;20491;-53
2023/01/21 02:45:03;;;;;;;61.60;39.45;;;;;;;-1.77;100.00;102717.19;5047534;28;20387;-54
2023/01/21 02:47:42;;;;;;;60.65;37.53;;;;;;;-1.79;100.00;102714.59;5050982;28;20020;-54
2023/01/21 02:50:19;;;;;;;64.05;39.40;;;;;;;-1.80;100.00;102723.25;5050649;28;20036;-53
2023/01/21 02:52:53;;;;;;;64.25;39.47;;;;;;;-1.82;100.00;102727.59;5033878;28;20057;-55
2023/01/21 02:55:22;;;;;;;61.88;38.08;;;;;;;-1.85;100.00;102732.78;5051563;28;20025;-52
2023/01/21 02:57:52;;;;;;;59.15;37.35;;;;;;;-1.85;100.00;102735.38;5049854;28;20037;-55
2023/01/21 03:00:25;;;;;;;63.05;37.95;;;;;;;-1.85;100.00;102740.59;5050999;28;20233;-52
2023/01/21 03:03:20;;;;;;;66.00;40.22;;;;;;;-1.84;100.00;102737.13;5041436;28;20028;-52
2023/01/21 03:05:48;;;;;;;66.38;39.17;;;;;;;-1.83;100.00;102745.81;5045703;28;20029;-55
2023/01/21 03:08:20;;;;;;;68.47;40.10;;;;;;;-1.83;100.00;102743.22;5041354;28;20029;-55
2023/01/21 03:11:07;;;;;;;59.15;36.33;;;;;;;-1.82;100.00;102738.00;5050632;28;20108;-52
2023/01/21 03:19:19;;;;;;;59.95;35.28;;;;;;;-1.86;100.00;102742.34;5050794;28;20048;-54
2023/01/21 03:21:46;;;;;;;66.13;35.85;;;;;;;-1.86;100.00;102749.28;5051114;28;20108;-54
2023/01/21 03:24:13;;;;;;;61.90;36.33;;;;;;;-1.86;100.00;102751.88;5054657;28;20029;-53
2023/01/21 03:26:43;;;;;;;62.58;36.08;;;;;;;-1.90;100.00;102756.22;5059123;28;20033;-56
2023/01/21 03:29:12;;;;;;;;;;;;;;;-1.82;100.00;102751.03;5054776;28;20053;-53
2023/01/21 03:31:39;;;;;;;;;;;;;;;-1.81;100.00;102757.13;5054281;28;20014;-56
2023/01/21 03:34:08;;;;;;;57.85;32.95;;;;;;;-1.90;100.00;102751.00;5054436;28;19917;-56
2023/01/21 03:36:56;;;;;;;55.55;33.95;;;;;;;-1.88;100.00;102757.09;5044031;28;20027;-52
2023/01/21 03:39:32;;;;;;;57.58;34.25;;;;;;;-1.91;100.00;102759.66;5046125;28;20106;-53
2023/01/21 03:41:57;;;;;;;53.95;32.88;;;;;;;-1.94;100.00;102770.06;5047680;28;20489;-55
2023/01/21 03:44:23;;;;;;;58.92;33.92;;;;;;;-1.94;100.00;102771.81;5039871;28;20156;-53
2023/01/21 03:47:00;;;;;;;58.92;34.80;;;;;;;-1.96;100.00;102770.94;5044411;28;20042;-56
2023/01/21 03:49:36;;;;;;;54.78;33.78;;;;;;;-1.97;100.00;102779.59;5055212;28;20043;-56
2023/01/21 03:52:04;;;;;;;58.22;33.47;;;;;;;-1.99;100.00;102778.72;5045423;28;20028;-56
2023/01/21 03:54:30;;;;;;;54.42;33.35;;;;;;;-1.98;100.00;102790.84;5055024;28;20051;-56
2023/01/21 03:56:55;;;;;;;55.53;33.50;;;;;;;-2.00;100.00;102790.84;5055561;28;20368;-56
2023/01/21 03:59:21;;;;;;;51.97;31.85;;;;;;;-2.00;100.00;102788.25;5042099;28;20117;-56
2023/01/21 04:01:46;;;;;;;54.80;33.40;;;;;;;-2.01;100.00;102794.31;5053506;28;20029;-53
2023/01/21 04:04:11;;;;;;;53.80;32.28;;;;;;;-2.05;100.00;102788.22;5055297;28;20029;-55
2023/01/21 04:06:37;;;;;;;53.95;31.20;;;;;;;-2.05;100.00;102793.44;5052396;28;20025;-55
2023/01/21 04:09:03;;;;;;;57.05;33.03;;;;;;;-2.06;100.00;102793.44;5037483;28;20029;-56
2023/01/21 04:11:28;;;;;;;53.50;31.73;;;;;;;-2.06;100.00;102798.63;5055076;28;20102;-56
2023/01/21 04:13:53;;;;;;;54.97;32.65;;;;;;;-2.07;100.00;102797.75;5052982;28;20025;-57
2023/01/21 04:16:19;;;;;;;56.60;33.20;;;;;;;-2.07;100.00;102791.66;5045965;28;20037;-57
2023/01/21 04:18:44;;;;;;;52.40;31.73;;;;;;;-2.10;100.00;102807.25;5053952;28;20565;-55
2023/01/21 04:21:09;;;;;;;57.03;31.55;;;;;;;-2.09;100.00;102804.69;5050755;28;20445;-57
2023/01/21 04:23:35;;;;;;;52.72;31.23;;;;;;;-2.11;100.00;102806.41;5054924;28;20017;-57
2023/01/21 04:26:00;;;;;;;49.42;30.23;;;;;;;-2.11;100.00;102805.53;5054941;28;20051;-57
2023/01/21 04:28:26;;;;;;;53.40;31.02;;;;;;;-2.12;100.00;102809.84;5054271;28;20025;-57
2023/01/21 04:30:51;;;;;;;51.17;30.60;;;;;;;-2.12;100.00;102814.19;5054911;28;20203;-54
2023/01/21 04:33:16;;;;;;;50.35;30.13;;;;;;;-2.12;100.00;102816.81;5052067;28;20041;-56
2023/01/21 04:35:42;;;;;;;49.30;29.58;;;;;;;-2.13;100.00;102813.34;5054836;28;20029;-57
2023/01/21 04:38:07;;;;;;;52.40;30.60;;;;;;;-2.15;100.00;102814.16;5053803;28;20060;-55
2023/01/21 04:40:33;;;;;;;52.97;30.80;;;;;;;-2.16;100.00;102812.44;5054669;28;20487;-57
2023/01/21 04:42:58;;;;;;;57.00;31.05;;;;;;;-2.17;100.00;102814.16;5050623;28;20021;-57
2023/01/21 04:45:23;;;;;;;56.22;30.38;;;;;;;-2.19;100.00;102818.47;5054489;28;20037;-55
2023/01/21 04:47:48;;;;;;;50.53;30.38;;;;;;;-2.20;100.00;102821.94;5054425;28;20017;-57
2023/01/21 04:50:14;;;;;;;49.85;29.33;;;;;;;-2.20;100.00;102829.75;5040010;28;20503;-54
2023/01/21 04:52:41;;;;;;;52.45;30.67;;;;;;;-2.18;100.00;102835.84;5051975;28;20021;-56
2023/01/21 04:55:07;;;;;;;51.92;30.38;;;;;;;-2.19;100.00;102828.91;5054736;28;20244;-54
2023/01/21 04:57:33;;;;;;;49.47;29.42;;;;;;;-2.17;100.00;102834.97;5049852;28;20100;-55
2023/01/21 04:59:58;;;;;;;46.88;28.85;;;;;;;-2.18;100.00;102832.34;5054631;28;20059;-54
2023/01/21 05:02:23;;;;;;;52.10;29.42;;;;;;;-2.19;100.00;102833.25;5054015;28;20021;-56
2023/01/21 05:04:49;;;;;;;49.92;30.13;;;;;;;-2.22;100.00;102839.28;5035661;28;20382;-55
2023/01/21 05:07:14;;;;;;;55.03;29.17;;;;;;;-2.21;100.00;102842.75;5053952;28;20032;-56
2023/01/21 05:09:40;;;;;;;48.33;29.42;;;;;;;-2.23;100.00;102853.16;5053602;28;20375;-55
2023/01/21 05:12:05;;;;;;;50.80;30.40;;;;;;;-2.24;100.00;102854.88;5053958;28;20393;-54
2023/01/21 05:14:31;;;;;;;48.00;29.30;;;;;;;-2.22;100.00;102848.81;5054034;28;20107;-56
2023/01/21 05:16:57;;;;;;;52.60;30.42;;;;;;;-2.22;100.00;102857.50;5051170;28;20041;-56
2023/01/21 05:19:22;;;;;;;48.60;28.27;;;;;;;-2.22;100.00;102857.50;5053705;28;20040;-56
2023/01/21 05:21:48;;;;;;;45.78;28.10;;;;;;;-2.23;100.00;102863.59;5053841;28;20017;-55
2023/01/21 05:24:13;;;;;;;49.38;30.58;;;;;;;-2.25;100.00;102860.97;5044921;28;20394;-57
2023/01/21 05:26:38;;;;;;;49.85;29.90;;;;;;;-2.27;100.00;102860.06;5053828;28;20025;-55
2023/01/21 05:29:03;;;;;;;52.17;29.48;;;;;;;-2.28;100.00;102868.75;5049206;28;20024;-55
2023/01/21 05:31:29;;;;;;;54.95;30.45;;;;;;;-2.26;100.00;102869.63;5050413;28;20438;-56
2023/01/21 05:33:55;;;;;;;50.60;29.45;;;;;;;-2.27;100.00;102869.59;5053971;28;20075;-55
2023/01/21 05:36:21;;;;;;;50.95;29.02;;;;;;;-2.26;100.00;102873.97;5051085;28;20021;-55
2023/01/21 05:38:46;;;;;;;49.88;29.58;;;;;;;-2.26;100.00;102880.03;5053808;28;20408;-56
2023/01/21 05:41:11;;;;;;;49.22;29.08;;;;;;;-2.27;100.00;102880.00;5053324;28;20527;-58
2023/01/21 05:43:36;;;;;;;50.03;27.77;;;;;;;-2.26;100.00;102881.78;5052997;28;20036;-54
2023/01/21 05:46:02;;;;;;;49.03;29.50;;;;;;;-2.28;100.00;102883.47;5053567;28;20100;-57
2023/01/21 05:48:28;;;;;;;48.25;29.23;;;;;;;-2.30;100.00;102882.56;5047849;28;20112;-54
2023/01/21 05:50:53;;;;;;;47.92;28.08;;;;;;;-2.32;100.00;102886.91;5042109;28;20644;-57
2023/01/21 05:53:19;;;;;;;50.67;29.15;;;;;;;-2.32;100.00;102890.38;5053889;28;20036;-56
2023/01/21 05:55:44;;;;;;;47.67;27.98;;;;;;;-2.35;100.00;102885.13;5050676;28;20119;-54
2023/01/21 05:58:09;;;;;;;47.25;28.23;;;;;;;-2.35;100.00;102895.53;5053397;28;20064;-55
2023/01/21 06:00:34;;;;;;;52.15;28.90;;;;;;;-2.36;100.00;102890.34;5052344;28;20025;-56
2023/01/21 06:03:01;;;;;;;50.88;29.05;;;;;;;-2.37;100.00;102899.00;5053141;28;20120;-57
2023/01/21 06:05:27;;;;;;;48.30;28.17;;;;;;;-2.37;100.00;102896.41;5051663;28;20112;-58
2023/01/21 06:07:52;;;;;;;47.88;28.73;;;;;;;-2.40;100.00;102902.44;5053476;28;20065;-56
2023/01/21 06:10:17;;;;;;;49.63;28.90;;;;;;;-2.40;100.00;102899.81;5053760;28;20502;-57
2023/01/21 06:12:43;;;;;;;50.45;28.55;;;;;;;-2.40;100.00;102902.44;5053505;28;20029;-56
2023/01/21 06:15:08;;;;;;;47.92;27.58;;;;;;;-2.40;100.00;102917.19;5050957;28;20029;-57
2023/01/21 06:17:37;;;;;;;48.33;28.58;;;;;;;-2.44;100.00;102917.13;5053018;28;20052;-56
2023/01/21 06:20:03;;;;;;;44.78;27.45;;;;;;;-2.43;100.00;102912.84;5052721;28;20099;-55
2023/01/21 06:22:28;;;;;;;48.60;28.77;;;;;;;-2.42;100.00;102917.16;5053043;28;20033;-54
2023/01/21 06:24:54;;;;;;;48.22;28.35;;;;;;;-2.45;100.00;102920.63;5050680;28;20032;-57
2023/01/21 06:27:19;;;;;;;47.13;28.42;;;;;;;-2.46;100.00;102924.06;5052875;28;20439;-53
2023/01/21 06:29:44;;;;;;;50.65;29.42;;;;;;;-2.46;100.00;102926.66;5053098;28;20029;-57
2023/01/21 06:32:09;;;;;;;49.60;28.23;;;;;;;-2.48;100.00;102923.19;5053131;28;20107;-55
2023/01/21 06:34:35;;;;;;;49.40;28.52;;;;;;;-2.51;100.00;102924.88;5049056;28;20059;-54
2023/01/21 06:37:00;;;;;;;49.50;28.17;;;;;;;-2.53;100.00;102932.66;5053093;28;20045;-54
2023/01/21 06:39:25;;;;;;;48.40;29.35;;;;;;;-2.54;100.00;102935.25;5052738;28;20147;-54
2023/01/21 06:41:50;;;;;;;48.58;29.02;;;;;;;-2.53;100.00;102939.56;5046681;28;20093;-54
2023/01/21 06:44:16;;;;;;;50.10;29.30;;;;;;;-2.57;100.00;102943.88;5052856;28;20025;-56
2023/01/21 06:46:41;;;;;;;53.42;28.95;;;;;;;-2.58;100.00;102955.16;5045924;28;20112;-53
2023/01/21 06:49:06;;;;;;;48.83;28.27;;;;;;;-2.59;100.00;102961.19;5049596;28;20042;-53
2023/01/21 06:51:32;;;;;;;52.95;29.77;;;;;;;-2.61;100.00;102955.13;5042243;28;20171;-55
2023/01/21 06:53:57;;;;;;;52.33;29.70;;;;;;;-2.61;100.00;102962.91;5032116;28;20032;-54
2023/01/21 06:56:22;;;;;;;49.13;28.58;;;;;;;-2.62;100.00;102959.41;5033332;28;20025;-56
2023/01/21 06:58:47;;;;;;;47.45;29.08;;;;;;;-2.63;100.00;102972.44;5033984;28;20031;-57
2023/01/21 07:01:13;;;;;;;50.83;28.27;;;;;;;-2.68;100.00;102968.88;5039568;28;20029;-55
2023/01/21 07:03:38;;;;;;;49.70;29.10;;;;;;;-2.68;100.00;102968.88;5040397;28;20104;-57
2023/01/21 07:06:03;;;;;;;49.40;29.15;;;;;;;-2.69;100.00;102970.63;5038360;28;20029;-57
2023/01/21 07:08:29;;;;;;;50.80;27.95;;;;;;;-2.71;100.00;102980.13;5046609;28;20025;-58
2023/01/21 07:10:54;;;;;;;51.33;28.88;;;;;;;-2.70;100.00;102981.88;5039433;28;20104;-56
2023/01/21 07:13:19;;;;;;;51.65;29.27;;;;;;;-2.73;100.00;102979.25;5040687;28;20493;-53
2023/01/21 07:15:45;;;;;;;53.00;28.98;;;;;;;-2.73;100.00;102983.56;5041202;28;20464;-57
2023/01/21 07:18:10;;;;;;;53.47;29.25;;;;;;;-2.74;100.00;102989.63;5047760;28;20452;-55
2023/01/21 07:20:35;;;;;;;49.70;28.73;;;;;;;-2.79;100.00;102995.63;5033885;28;20063;-57
2023/01/21 07:23:00;;;;;;;48.33;27.80;;;;;;;-2.81;100.00;102999.94;5051509;28;20021;-57
2023/01/21 07:25:26;;;;;;;52.30;29.10;;;;;;;-2.84;100.00;102999.88;5049252;28;20028;-57
2023/01/21 07:27:51;;;;;;;50.65;29.02;;;;;;;-2.85;100.00;103005.06;5043619;28;20095;-57
2023/01/21 07:30:18;;;;;;;50.13;29.20;;;;;;;-2.85;100.00;103013.75;5050870;28;20372;-58
2023/01/21 07:32:44;;;;;;;51.47;28.85;;;;;;;-2.87;100.00;103006.78;5050580;28;20045;-57
2023/01/21 07:35:09;;;;;;;52.60;29.23;;;;;;;-2.88;100.00;103013.72;5050429;28;20029;-57
2023/01/21 07:37:35;;;;;;;49.80;28.77;;;;;;;-2.86;100.00;103022.41;5049831;28;20153;-57
2023/01/21 07:40:00;;;;;;;50.33;28.90;;;;;;;-2.87;100.00;103027.59;5059357;28;20036;-57
2023/01/21 07:42:25;;;;;;;49.13;28.95;;;;;;;-2.87;100.00;103028.44;5048697;28;20108;-58
2023/01/21 07:44:50;;;;;;;52.20;29.33;;;;;;;-2.85;100.00;103033.69;5048696;28;20029;-57
2023/01/21 07:47:16;;;;;;;49.63;29.20;;;;;;;-2.85;100.00;103037.16;5041454;28;20457;-58
2023/01/21 07:49:41;;;;;;;54.05;30.00;;;;;;;-2.83;100.00;103042.38;5036283;28;20037;-57
2023/01/21 07:52:06;;;;;;;48.75;29.27;;;;;;;-2.85;100.00;103047.56;5037167;28;20053;-58
2023/01/21 07:54:32;;;;;;;51.47;29.27;;;;;;;-2.85;100.00;103044.97;5038655;28;20097;-56
2023/01/21 07:56:57;;;;;;;49.67;28.00;;;;;;;-2.85;100.00;103049.28;5038169;28;20038;-57
2023/01/21 07:59:22;;;;;;;50.65;28.13;;;;;;;-2.85;100.00;103057.97;5040478;28;20041;-56
2023/01/21 08:01:48;;;;;;;51.20;27.90;;;;;;;-2.86;100.00;103058.81;5038429;28;20051;-57
2023/01/21 08:04:13;;;;;;;52.03;29.33;;;;;;;-2.86;100.00;103066.63;5040930;28;20446;-56
2023/01/21 08:06:42;;;;;;;48.67;27.42;;;;;;;-2.86;100.00;103071.81;5035801;28;20036;-57
2023/01/21 08:09:08;;;;;;;53.35;30.67;;;;;;;-2.87;100.00;103071.78;5040160;28;20128;-55
2023/01/21 08:11:33;;;;;;;54.33;30.63;;;;;;;-2.86;100.00;103083.97;5041518;28;20070;-56
2023/01/21 08:13:59;;;;;;;57.95;29.75;;;;;;;-2.87;100.00;103082.19;5042731;28;20483;-54
2023/01/21 08:16:24;;;;;;;62.85;32.80;;;;;;;-2.87;100.00;103092.59;5041679;28;20561;-57
2023/01/21 08:18:49;;;;;;;61.13;32.70;;;;;;;-2.88;100.00;103090.84;5042818;28;20041;-57
2023/01/21 08:21:15;;;;;;;63.40;32.75;;;;;;;-2.88;100.00;103094.34;5041181;28;20078;-56
2023/01/21 08:23:40;;;;;;;63.78;31.40;;;;;;;-2.86;100.00;103100.41;5043036;28;20511;-56
2023/01/21 08:26:06;;;;;;;60.75;33.25;;;;;;;-2.86;100.00;103102.16;5039262;28;20082;-57
2023/01/21 08:28:32;;;;;;;66.97;35.47;;;;;;;-2.86;100.00;103107.38;5040001;28;20103;-56
2023/01/21 08:31:02;;;;;;;65.80;34.00;;;;;;;-2.83;100.00;103112.59;5036015;28;20025;-57
2023/01/21 08:33:28;;;;;;;65.80;33.60;;;;;;;-2.83;100.00;103112.59;5041430;28;20036;-55
2023/01/21 08:35:59;;;;;;;69.07;34.13;;;;;;;-2.81;100.00;103118.72;5041151;28;20021;-56
2023/01/21 08:38:24;;;;;;;69.18;34.17;;;;;;;-2.78;100.00;103123.97;5039955;28;20041;-55
2023/01/21 08:40:49;;;;;;;73.15;35.22;;;;;;;-2.75;100.00;103129.19;5042614;28;20017;-55
2023/01/21 08:43:14;;;;;;;69.40;34.92;;;;;;;-2.74;100.00;103125.75;5040834;28;20158;-56
2023/01/21 08:45:40;;;;;;;75.47;36.42;;;;;;;-2.74;100.00;103120.53;5042262;28;20109;-57
2023/01/21 08:48:05;;;;;;;67.18;34.33;;;;;;;-2.73;100.00;103132.72;5036163;28;20040;-57
2023/01/21 08:50:31;;;;;;;72.43;35.10;;;;;;;-2.69;100.00;103128.44;5038071;28;20487;-55
2023/01/21 08:52:56;;;;;;;69.15;35.20;;;;;;;-2.67;100.00;103142.31;5039545;28;20020;-56
2023/01/21 08:55:26;;;;;;;74.30;36.03;;;;;;;-2.62;100.00;103140.66;5039526;28;20439;-54
2023/01/21 08:57:54;;;;;;;77.78;37.13;;;;;;;-2.60;100.00;103146.75;5038632;28;20406;-58
2023/01/21 09:00:21;;;;;;;68.87;35.20;;;;;;;-2.56;100.00;103155.50;5038037;28;20026;-55
2023/01/21 09:02:47;;;;;;;79.25;37.60;;;;;;;-2.54;100.00;103153.81;5041676;28;20124;-56
2023/01/21 09:05:12;;;;;;;78.13;38.08;;;;;;;-2.53;100.00;103150.31;5043273;28;20111;-56
2023/01/21 09:07:37;;;;;;;81.85;38.15;;;;;;;-2.49;100.00;103155.59;5050966;28;20472;-56
2023/01/21 09:10:04;;;;;;;83.10;39.03;;;;;;;-2.49;100.00;103162.56;5052522;28;20103;-55
2023/01/21 09:12:29;;;;;;;79.45;35.78;;;;;;;-2.47;100.00;103159.09;5052613;28;20028;-57
2023/01/21 09:14:55;;;;;;;81.10;37.75;;;;;;;-2.44;100.00;103168.69;5053644;28;20118;-56
2023/01/21 09:17:21;;;;;;;79.95;38.15;;;;;;;-2.43;100.00;103163.53;5050312;28;20033;-56
2023/01/21 09:19:47;;;;;;;81.03;36.90;;;;;;;-2.41;100.00;103160.94;5030885;28;20152;-58
2023/01/21 09:22:13;;;;;;;80.28;35.50;;;;;;;-2.38;100.00;103167.91;5035588;28;20116;-54
2023/01/21 09:24:38;;;;;;;77.75;38.20;;;;;;;-2.36;100.00;103164.47;5036682;28;20468;-56
2023/01/21 09:27:05;;;;;;;88.97;37.28;;;;;;;-2.34;100.00;103165.38;5047695;28;20036;-57
2023/01/21 09:29:31;;;;;;;83.03;37.80;;;;;;;-2.30;100.00;103171.50;5045866;28;20040;-57
2023/01/21 09:31:56;;;;;;;80.70;36.10;;;;;;;-2.28;100.00;103165.47;5028505;28;20029;-58
2023/01/21 09:34:21;;;;;;;80.30;33.85;;;;;;;-2.26;100.00;103170.69;5036247;28;20375;-56
2023/01/21 09:36:46;;;;;;;83.35;37.17;;;;;;;-2.26;100.00;103179.38;5038339;28;20071;-54
2023/01/21 09:39:12;;;;;;;92.13;38.08;;;;;;;-2.24;100.00;103179.41;5034807;28;20651;-54
2023/01/21 09:41:40;;;;;;;81.18;35.95;;;;;;;-2.22;100.00;103187.25;5042429;28;20032;-56
2023/01/21 09:44:33;;;;;;;81.35;35.58;;;;;;;-2.19;100.00;103198.56;5047784;28;20024;-54
2023/01/21 09:47:46;;;;;;;75.07;35.42;;;;;;;-2.16;100.00;103197.75;5042310;28;20031;-57
2023/01/21 09:50:18;;;;;;;78.80;36.10;;;;;;;-2.17;100.00;103203.78;5034510;28;20045;-55
2023/01/21 09:52:59;;;;;;;82.70;36.17;;;;;;;-2.11;100.00;103209.09;5041073;28;20032;-55
2023/01/21 09:55:38;;;;;;;75.57;34.95;;;;;;;-2.09;100.00;103205.66;5052036;28;20379;-58
2023/01/21 09:58:45;;;;;;;77.80;35.47;;;;;;;-2.06;100.00;103218.72;5038271;28;20453;-54
2023/01/21 10:01:31;;;;;;;84.82;34.40;;;;;;;-2.07;100.00;103213.47;5043297;28;20395;-58
2023/01/21 10:04:41;;;;;;;85.70;36.33;;;;;;;-2.06;100.00;103210.91;5044440;28;20487;-56
2023/01/21 10:07:32;;;;;;;80.35;34.60;;;;;;;-1.99;100.00;103221.41;5037506;28;20449;-57
2023/01/21 10:10:10;;;;;;;81.63;34.75;;;;;;;-1.96;100.00;103229.28;5033420;28;20037;-56
2023/01/21 10:12:57;;;;;;;85.53;37.03;;;;;;;-1.92;100.00;103221.50;5035331;28;20479;-56
2023/01/21 10:15:45;;;;;;;85.57;37.28;;;;;;;-1.88;100.00;103240.69;5034645;28;20406;-58
2023/01/21 10:18:17;;;;;;;87.15;35.75;;;;;;;-1.88;100.00;103238.06;5038262;28;20561;-55
2023/01/21 10:20:49;;;;;;;76.88;34.30;;;;;;;-1.88;100.00;103238.94;5032849;28;20064;-55
2023/01/21 10:23:25;;;;;;;81.65;34.55;;;;;;;-1.84;100.00;103249.41;5036250;28;20025;-53
2023/01/21 10:25:50;;;;;;;80.45;35.00;;;;;;;-1.83;100.00;103249.44;5035492;28;20029;-56
2023/01/21 10:28:21;;;;;;;80.40;35.88;;;;;;;-1.83;100.00;103245.94;5039273;28;20033;-56
2023/01/21 10:30:53;;;;;;;78.60;34.15;;;;;;;-1.83;100.00;103246.81;5037121;28;20112;-58
2023/01/21 10:33:25;;;;;;;78.68;34.30;;;;;;;-1.84;100.00;103242.47;5025740;28;20438;-57
2023/01/21 10:36:36;;;;;;;78.50;35.45;;;;;;;-1.78;100.00;103246.88;5031356;28;20388;-57
2023/01/21 10:39:25;;;;;;;75.45;34.40;;;;;;;-1.78;100.00;103239.94;4945522;28;20070;-57
2023/01/21 10:42:16;;;;;;;80.63;35.42;;;;;;;-1.73;100.00;103245.22;5032860;28;20378;-57
2023/01/21 10:44:55;;;;;;;77.03;33.70;;;;;;;-1.73;100.00;103240.03;5034798;28;20037;-57
2023/01/21 10:47:39;;;;;;;82.82;35.13;;;;;;;-1.69;100.00;103237.44;5034462;28;20017;-56
2023/01/21 10:50:26;;;;;;;82.43;33.88;;;;;;;-1.63;100.00;103233.16;5032493;28;20021;-57
2023/01/21 10:53:12;;;;;;;80.15;34.08;;;;;;;-1.57;100.00;103230.66;5047970;28;20017;-58
2023/01/21 10:55:59;;;;;;;87.45;34.55;;;;;;;-1.54;100.00;103228.09;5017750;28;20546;-57
2023/01/21 10:58:51;;;;;;;82.30;34.85;;;;;;;-1.48;100.00;103230.78;5032490;28;20036;-58
2023/01/21 11:01:46;;;;;;;82.03;34.55;;;;;;;-1.41;100.00;103223.91;5034332;28;20014;-57
2023/01/21 11:04:19;;;;;;;86.70;34.90;;;;;;;-1.33;100.00;103215.31;5036726;28;20109;-57
2023/01/21 11:06:56;;;;;;;82.20;36.95;;;;;;;-1.25;100.00;103220.63;5034522;28;20060;-58
2023/01/21 11:09:25;;;;;;;83.60;35.22;;;;;;;-1.17;100.00;103225.91;5035165;28;20053;-55
2023/01/21 11:11:51;;;;;;;85.25;36.08;;;;;;;-1.10;100.00;103219.00;5034677;28;20044;-56
2023/01/21 11:14:16;;;;;;;80.40;35.67;;;;;;;-1.03;100.00;103224.31;5034486;28;20026;-57
2023/01/21 11:16:45;;;;;;;81.30;36.15;;;;;;;-1.00;100.00;103216.53;5036196;28;20052;-57
2023/01/21 11:19:31;;;;;;;77.25;34.47;;;;;;;-0.91;100.00;103217.47;5036177;28;20484;-57